sensor_id;sensor_type;location;lat;lon;timestamp;pressure;altitude;pressure_sealevel;temperature;humidity
3254;BME280;1639;42.804;23.342;2023-06-26T00:01:25;71834.94;;;-148.52;100.00
3254;BME280;1639;42.804;23.342;2023-06-26T00:03:55;71841.13;;;-148.52;100.00
3254;BME280;1639;42.804;23.342;2023-06-26T00:06:20;71841.13;;;-148.52;100.00
3254;BME280;1639;42.804;23.342;2023-06-26T00:08:45;71851.47;;;-148.52;100.00
3254;BME280;1639;42.804;23.342;2023-06-26T00:11:11;71865.94;;;-148.52;100.00
3254;BME280;1639;42.804;23.342;2023-06-26T00:13:36;71876.28;;;-148.52;100.00
3254;BME280;1639;42.804;23.342;2023-06-26T00:16:01;71899.03;;;-148.52;100.00
3254;BME280;1639;42.804;23.342;2023-06-26T00:18:28;71892.81;;;-148.52;100.00
3254;BME280;1639;42.804;23.342;2023-06-26T00:20:54;71886.63;;;-148.52;100.00
3254;BME280;1639;42.804;23.342;2023-06-26T00:23:19;71882.50;;;-148.52;100.00
3254;BME280;1639;42.804;23.342;2023-06-26T00:25:45;71874.22;;;-148.52;100.00
3254;BME280;1639;42.804;23.342;2023-06-26T00:28:10;71876.28;;;-148.52;100.00
3254;BME280;1639;42.804;23.342;2023-06-26T00:30:36;71876.28;;;-148.52;100.00
3254;BME280;1639;42.804;23.342;2023-06-26T00:33:01;71865.94;;;-148.52;100.00
3254;BME280;1639;42.804;23.342;2023-06-26T00:35:26;71870.09;;;-148.52;100.00
3254;BME280;1639;42.804;23.342;2023-06-26T00:37:52;71872.16;;;-148.52;100.00
3254;BME280;1639;42.804;23.342;2023-06-26T00:40:17;71870.09;;;-148.52;100.00
3254;BME280;1639;42.804;23.342;2023-06-26T00:42:43;71878.34;;;-148.52;100.00
3254;BME280;1639;42.804;23.342;2023-06-26T00:45:08;71903.16;;;-148.52;100.00
3254;BME280;1639;42.804;23.342;2023-06-26T00:47:33;71946.59;;;-148.52;100.00
3254;BME280;1639;42.804;23.342;2023-06-26T00:49:59;71930.03;;;-148.52;100.00
3254;BME280;1639;42.804;23.342;2023-06-26T00:52:25;71894.91;;;-148.52;100.00
3254;BME280;1639;42.804;23.342;2023-06-26T00:54:50;71894.91;;;-148.52;100.00
3254;BME280;1639;42.804;23.342;2023-06-26T00:57:17;71882.50;;;-148.52;100.00
3254;BME280;1639;42.804;23.342;2023-06-26T00:59:43;71876.28;;;-148.52;100.00
3254;BME280;1639;42.804;23.342;2023-06-26T01:02:08;71884.56;;;-148.52;100.00
3254;BME280;1639;42.804;23.342;2023-06-26T01:04:35;71890.75;;;-148.52;100.00
3254;BME280;1639;42.804;23.342;2023-06-26T01:07:01;71938.31;;;-148.52;100.00
3254;BME280;1639;42.804;23.342;2023-06-26T01:09:28;71979.66;;;-148.52;100.00
3254;BME280;1639;42.804;23.342;2023-06-26T01:11:54;71973.47;;;-148.52;100.00
3254;BME280;1639;42.804;23.342;2023-06-26T01:14:20;71946.59;;;-148.52;100.00
3254;BME280;1639;42.804;23.342;2023-06-26T01:16:46;71938.31;;;-148.52;100.00
3254;BME280;1639;42.804;23.342;2023-06-26T01:19:31;71963.13;;;-148.52;100.00
3254;BME280;1639;42.804;23.342;2023-06-26T01:24:33;71942.44;;;-148.52;100.00
3254;BME280;1639;42.804;23.342;2023-06-26T01:27:02;71932.13;;;-148.52;100.00
3254;BME280;1639;42.804;23.342;2023-06-26T01:29:29;71919.72;;;-148.52;100.00
3254;BME280;1639;42.804;23.342;2023-06-26T01:31:56;71919.72;;;-148.52;100.00
3254;BME280;1639;42.804;23.342;2023-06-26T01:34:21;71915.56;;;-148.52;100.00
3254;BME280;1639;42.804;23.342;2023-06-26T01:36:46;71917.63;;;-148.52;100.00
3254;BME280;1639;42.804;23.342;2023-06-26T01:39:16;71909.38;;;-148.52;100.00
3254;BME280;1639;42.804;23.342;2023-06-26T01:41:41;71915.56;;;-148.52;100.00
3254;BME280;1639;42.804;23.342;2023-06-26T01:51:56;71921.78;;;-148.52;100.00
3254;BME280;1639;42.804;23.342;2023-06-26T01:54:23;71927.97;;;-148.52;100.00
3254;BME280;1639;42.804;23.342;2023-06-26T01:56:52;71936.25;;;-148.52;100.00
3254;BME280;1639;42.804;23.342;2023-06-26T01:59:20;71940.38;;;-148.52;100.00
3254;BME280;1639;42.804;23.342;2023-06-26T02:01:47;71956.94;;;-148.52;100.00
3254;BME280;1639;42.804;23.342;2023-06-26T02:04:13;71963.13;;;-148.52;100.00
3254;BME280;1639;42.804;23.342;2023-06-26T02:06:38;71971.41;;;-148.52;100.00
3254;BME280;1639;42.804;23.342;2023-06-26T02:09:03;71971.41;;;-148.52;100.00
3254;BME280;1639;42.804;23.342;2023-06-26T02:11:29;71983.81;;;-148.52;100.00
3254;BME280;1639;42.804;23.342;2023-06-26T02:13:54;72014.81;;;-148.52;100.00
3254;BME280;1639;42.804;23.342;2023-06-26T02:16:20;72021.03;;;-148.52;100.00
3254;BME280;1639;42.804;23.342;2023-06-26T02:18:45;72012.75;;;-148.52;100.00
3254;BME280;1639;42.804;23.342;2023-06-26T02:21:11;72012.75;;;-148.52;100.00
3254;BME280;1639;42.804;23.342;2023-06-26T02:23:36;72031.38;;;-148.52;100.00
3254;BME280;1639;42.804;23.342;2023-06-26T02:26:03;72029.28;;;-148.52;100.00
3254;BME280;1639;42.804;23.342;2023-06-26T02:28:28;72039.63;;;-148.52;100.00
3254;BME280;1639;42.804;23.342;2023-06-26T02:30:53;72037.56;;;-148.52;100.00
3254;BME280;1639;42.804;23.342;2023-06-26T02:33:19;72035.50;;;-148.52;100.00
3254;BME280;1639;42.804;23.342;2023-06-26T02:35:44;72064.44;;;-148.52;100.00
3254;BME280;1639;42.804;23.342;2023-06-26T02:38:10;72076.84;;;-148.52;100.00
3254;BME280;1639;42.804;23.342;2023-06-26T02:40:35;72070.66;;;-148.52;100.00
3254;BME280;1639;42.804;23.342;2023-06-26T02:43:00;72072.72;;;-148.52;100.00
3254;BME280;1639;42.804;23.342;2023-06-26T02:45:26;72068.59;;;-148.52;100.00
3254;BME280;1639;42.804;23.342;2023-06-26T02:47:51;72058.25;;;-148.52;100.00
3254;BME280;1639;42.804;23.342;2023-06-26T02:50:16;72056.16;;;-148.52;100.00
3254;BME280;1639;42.804;23.342;2023-06-26T02:52:42;72049.97;;;-148.52;100.00
3254;BME280;1639;42.804;23.342;2023-06-26T02:55:07;72076.84;;;-148.52;100.00
3254;BME280;1639;42.804;23.342;2023-06-26T02:57:33;72072.72;;;-148.52;100.00
3254;BME280;1639;42.804;23.342;2023-06-26T02:59:58;72066.50;;;-148.52;100.00
3254;BME280;1639;42.804;23.342;2023-06-26T03:02:23;72074.78;;;-148.52;100.00
3254;BME280;1639;42.804;23.342;2023-06-26T03:04:49;72072.72;;;-148.52;100.00
3254;BME280;1639;42.804;23.342;2023-06-26T03:07:15;72062.38;;;-148.52;100.00
3254;BME280;1639;42.804;23.342;2023-06-26T03:09:41;72052.03;;;-148.52;100.00
3254;BME280;1639;42.804;23.342;2023-06-26T03:12:07;72035.50;;;-148.52;100.00
3254;BME280;1639;42.804;23.342;2023-06-26T03:14:32;72033.44;;;-148.52;100.00
3254;BME280;1639;42.804;23.342;2023-06-26T03:16:58;72047.91;;;-148.52;100.00
3254;BME280;1639;42.804;23.342;2023-06-26T03:19:24;72054.09;;;-148.52;100.00
3254;BME280;1639;42.804;23.342;2023-06-26T03:21:50;72052.03;;;-148.52;100.00
3254;BME280;1639;42.804;23.342;2023-06-26T03:24:15;72058.25;;;-148.52;100.00
3254;BME280;1639;42.804;23.342;2023-06-26T03:26:40;72049.97;;;-148.52;100.00
3254;BME280;1639;42.804;23.342;2023-06-26T03:29:06;72047.91;;;-148.52;100.00
3254;BME280;1639;42.804;23.342;2023-06-26T03:31:31;72035.50;;;-148.52;100.00
3254;BME280;1639;42.804;23.342;2023-06-26T03:33:57;72031.38;;;-148.52;100.00
3254;BME280;1639;42.804;23.342;2023-06-26T03:36:22;72025.16;;;-148.52;100.00
3254;BME280;1639;42.804;23.342;2023-06-26T03:38:47;72029.28;;;-148.52;100.00
3254;BME280;1639;42.804;23.342;2023-06-26T03:41:13;72025.16;;;-148.52;100.00
3254;BME280;1639;42.804;23.342;2023-06-26T03:43:38;72016.88;;;-148.52;100.00
3254;BME280;1639;42.804;23.342;2023-06-26T03:46:03;72004.47;;;-148.52;100.00
3254;BME280;1639;42.804;23.342;2023-06-26T03:48:29;71996.22;;;-148.52;100.00
3254;BME280;1639;42.804;23.342;2023-06-26T03:50:54;72002.41;;;-148.52;100.00
3254;BME280;1639;42.804;23.342;2023-06-26T03:53:20;72016.88;;;-148.52;100.00
3254;BME280;1639;42.804;23.342;2023-06-26T03:55:45;72025.16;;;-148.52;100.00
3254;BME280;1639;42.804;23.342;2023-06-26T03:58:10;72006.56;;;-148.52;100.00
3254;BME280;1639;42.804;23.342;2023-06-26T04:00:36;72021.03;;;-148.52;100.00
3254;BME280;1639;42.804;23.342;2023-06-26T04:03:02;72014.81;;;-148.52;100.00
3254;BME280;1639;42.804;23.342;2023-06-26T04:05:28;72016.88;;;-148.52;100.00
3254;BME280;1639;42.804;23.342;2023-06-26T04:07:54;72010.69;;;-148.52;100.00
3254;BME280;1639;42.804;23.342;2023-06-26T04:10:19;72006.56;;;-148.52;100.00
3254;BME280;1639;42.804;23.342;2023-06-26T04:12:46;72000.34;;;-148.52;100.00
3254;BME280;1639;42.804;23.342;2023-06-26T04:15:12;71985.88;;;-148.52;100.00
3254;BME280;1639;42.804;23.342;2023-06-26T04:17:37;71975.53;;;-148.52;100.00
3254;BME280;1639;42.804;23.342;2023-06-26T04:20:03;71994.13;;;-148.52;100.00
3254;BME280;1639;42.804;23.342;2023-06-26T04:22:32;71994.13;;;-148.52;100.00
3254;BME280;1639;42.804;23.342;2023-06-26T04:24:58;72006.56;;;-148.52;100.00
3254;BME280;1639;42.804;23.342;2023-06-26T04:27:23;72012.75;;;-148.52;100.00
3254;BME280;1639;42.804;23.342;2023-06-26T04:29:49;72000.34;;;-148.52;100.00
3254;BME280;1639;42.804;23.342;2023-06-26T04:32:14;71994.13;;;-148.52;100.00
3254;BME280;1639;42.804;23.342;2023-06-26T04:34:39;71975.53;;;-148.52;100.00
3254;BME280;1639;42.804;23.342;2023-06-26T04:37:08;71963.13;;;-148.52;100.00
3254;BME280;1639;42.804;23.342;2023-06-26T04:39:35;71950.72;;;-148.52;100.00
3254;BME280;1639;42.804;23.342;2023-06-26T04:42:02;71936.25;;;-148.52;100.00
3254;BME280;1639;42.804;23.342;2023-06-26T04:44:27;71950.72;;;-148.52;100.00
3254;BME280;1639;42.804;23.342;2023-06-26T04:46:52;71932.13;;;-148.52;100.00
3254;BME280;1639;42.804;23.342;2023-06-26T04:49:18;71919.72;;;-148.52;100.00
3254;BME280;1639;42.804;23.342;2023-06-26T04:51:43;71903.16;;;-148.52;100.00
3254;BME280;1639;42.804;23.342;2023-06-26T04:54:10;71903.16;;;-148.52;100.00
3254;BME280;1639;42.804;23.342;2023-06-26T04:56:36;71890.75;;;-148.52;100.00
3254;BME280;1639;42.804;23.342;2023-06-26T04:59:01;71878.34;;;-148.52;100.00
3254;BME280;1639;42.804;23.342;2023-06-26T05:01:27;71876.28;;;-148.52;100.00
3254;BME280;1639;42.804;23.342;2023-06-26T05:03:55;71880.41;;;-148.52;100.00
3254;BME280;1639;42.804;23.342;2023-06-26T05:06:21;71863.88;;;-148.52;100.00
3254;BME280;1639;42.804;23.342;2023-06-26T05:08:46;71851.47;;;-148.52;100.00
3254;BME280;1639;42.804;23.342;2023-06-26T05:11:11;71839.06;;;-148.52;100.00
3254;BME280;1639;42.804;23.342;2023-06-26T05:13:37;71828.72;;;-148.52;100.00
3254;BME280;1639;42.804;23.342;2023-06-26T05:16:02;71828.72;;;-148.52;100.00
3254;BME280;1639;42.804;23.342;2023-06-26T05:18:28;71822.53;;;-148.52;100.00
3254;BME280;1639;42.804;23.342;2023-06-26T05:20:53;71799.78;;;-148.52;100.00
3254;BME280;1639;42.804;23.342;2023-06-26T05:23:19;71793.59;;;-148.52;100.00
3254;BME280;1639;42.804;23.342;2023-06-26T05:25:44;71793.59;;;-148.52;100.00
3254;BME280;1639;42.804;23.342;2023-06-26T05:28:10;71785.31;;;-148.52;100.00
3254;BME280;1639;42.804;23.342;2023-06-26T05:30:37;71772.91;;;-148.52;100.00
3254;BME280;1639;42.804;23.342;2023-06-26T05:33:03;71764.63;;;-148.52;100.00
3254;BME280;1639;42.804;23.342;2023-06-26T05:35:30;71758.44;;;-148.52;100.00
3254;BME280;1639;42.804;23.342;2023-06-26T05:37:56;71752.22;;;-148.52;100.00
3254;BME280;1639;42.804;23.342;2023-06-26T05:40:22;71748.09;;;-148.52;100.00
3254;BME280;1639;42.804;23.342;2023-06-26T05:42:48;71735.69;;;-148.52;100.00
3254;BME280;1639;42.804;23.342;2023-06-26T05:45:14;71723.28;;;-148.52;100.00
3254;BME280;1639;42.804;23.342;2023-06-26T05:47:40;71719.16;;;-148.52;100.00
3254;BME280;1639;42.804;23.342;2023-06-26T05:50:07;71702.59;;;-148.52;100.00
3254;BME280;1639;42.804;23.342;2023-06-26T05:52:33;71690.19;;;-148.52;100.00
3254;BME280;1639;42.804;23.342;2023-06-26T05:54:58;71688.13;;;-148.52;100.00
3254;BME280;1639;42.804;23.342;2023-06-26T05:57:26;71684.00;;;-148.52;100.00
3254;BME280;1639;42.804;23.342;2023-06-26T05:59:52;71725.34;;;-148.52;100.00
3254;BME280;1639;42.804;23.342;2023-06-26T06:02:18;71673.66;;;-148.52;100.00
3254;BME280;1639;42.804;23.342;2023-06-26T06:04:43;71737.75;;;-148.52;100.00
3254;BME280;1639;42.804;23.342;2023-06-26T06:07:08;71723.28;;;-148.52;100.00
3254;BME280;1639;42.804;23.342;2023-06-26T06:09:34;71715.00;;;-148.52;100.00
3254;BME280;1639;42.804;23.342;2023-06-26T06:11:59;71735.69;;;-148.52;100.00
3254;BME280;1639;42.804;23.342;2023-06-26T06:14:27;71768.78;;;-148.52;100.00
3254;BME280;1639;42.804;23.342;2023-06-26T06:16:52;71772.91;;;-148.52;100.00
3254;BME280;1639;42.804;23.342;2023-06-26T06:19:17;71781.19;;;-148.52;100.00
3254;BME280;1639;42.804;23.342;2023-06-26T06:21:43;71760.50;;;-148.52;100.00
3254;BME280;1639;42.804;23.342;2023-06-26T06:24:08;71756.38;;;-148.52;100.00
3254;BME280;1639;42.804;23.342;2023-06-26T06:26:35;71739.81;;;-148.52;100.00
3254;BME280;1639;42.804;23.342;2023-06-26T06:29:00;71708.81;;;-148.52;100.00
3254;BME280;1639;42.804;23.342;2023-06-26T06:31:26;71690.19;;;-148.52;100.00
3254;BME280;1639;42.804;23.342;2023-06-26T06:33:56;71675.72;;;-148.52;100.00
3254;BME280;1639;42.804;23.342;2023-06-26T06:36:21;71673.66;;;-148.52;100.00
3254;BME280;1639;42.804;23.342;2023-06-26T06:38:46;71628.19;;;-148.52;100.00
3254;BME280;1639;42.804;23.342;2023-06-26T06:41:12;71603.38;;;-148.52;100.00
3254;BME280;1639;42.804;23.342;2023-06-26T06:43:38;71574.41;;;-148.52;100.00
3254;BME280;1639;42.804;23.342;2023-06-26T06:46:04;71562.03;;;-148.52;100.00
3254;BME280;1639;42.804;23.342;2023-06-26T06:48:29;71533.06;;;-148.52;100.00
3254;BME280;1639;42.804;23.342;2023-06-26T06:50:54;71500.00;;;-148.52;100.00
3254;BME280;1639;42.804;23.342;2023-06-26T06:53:20;71477.25;;;-148.52;100.00
3254;BME280;1639;42.804;23.342;2023-06-26T06:55:46;71450.38;;;-148.52;100.00
3254;BME280;1639;42.804;23.342;2023-06-26T06:58:11;71440.03;;;-148.52;100.00
3254;BME280;1639;42.804;23.342;2023-06-26T07:00:37;71419.38;;;-148.52;100.00
3254;BME280;1639;42.804;23.342;2023-06-26T07:03:02;71402.81;;;-148.52;100.00
3254;BME280;1639;42.804;23.342;2023-06-26T07:05:28;71415.22;;;-148.52;100.00
3254;BME280;1639;42.804;23.342;2023-06-26T07:07:53;71437.97;;;-148.52;100.00
3254;BME280;1639;42.804;23.342;2023-06-26T07:10:18;71466.91;;;-148.52;100.00
3254;BME280;1639;42.804;23.342;2023-06-26T07:12:44;71446.25;;;-148.52;100.00
3254;BME280;1639;42.804;23.342;2023-06-26T07:15:10;71429.69;;;-148.52;100.00
3254;BME280;1639;42.804;23.342;2023-06-26T07:17:35;71446.25;;;-148.52;100.00
3254;BME280;1639;42.804;23.342;2023-06-26T07:20:03;71450.38;;;-148.52;100.00
3254;BME280;1639;42.804;23.342;2023-06-26T07:22:34;71398.69;;;-148.52;100.00
3254;BME280;1639;42.804;23.342;2023-06-26T07:24:59;71349.06;;;-148.52;100.00
3254;BME280;1639;42.804;23.342;2023-06-26T07:27:25;71284.97;;;-148.52;100.00
3254;BME280;1639;42.804;23.342;2023-06-26T07:29:50;71243.63;;;-148.52;100.00
3254;BME280;1639;42.804;23.342;2023-06-26T07:32:16;71206.44;;;-148.52;100.00
3254;BME280;1639;42.804;23.342;2023-06-26T07:34:41;71158.88;;;-148.52;82.56
3254;BME280;1639;42.804;23.342;2023-06-26T07:37:07;71142.34;;;-148.52;79.55
3254;BME280;1639;42.804;23.342;2023-06-26T07:39:32;71115.47;;;-148.52;78.05
3254;BME280;1639;42.804;23.342;2023-06-26T07:41:57;71067.91;;;-148.52;64.49
3254;BME280;1639;42.804;23.342;2023-06-26T07:44:26;71057.59;;;-148.52;60.43
3254;BME280;1639;42.804;23.342;2023-06-26T07:46:52;71057.59;;;-148.52;58.71
3254;BME280;1639;42.804;23.342;2023-06-26T07:49:17;71067.91;;;-148.52;58.26
3254;BME280;1639;42.804;23.342;2023-06-26T07:51:42;71070.00;;;-148.52;58.03
3254;BME280;1639;42.804;23.342;2023-06-26T07:54:08;71096.88;;;-148.52;56.67
3254;BME280;1639;42.804;23.342;2023-06-26T07:56:57;71140.28;;;-148.52;55.65
3254;BME280;1639;42.804;23.342;2023-06-26T07:59:24;71152.69;;;-148.52;58.12
3254;BME280;1639;42.804;23.342;2023-06-26T08:01:51;71206.44;;;-148.52;58.37
3254;BME280;1639;42.804;23.342;2023-06-26T08:04:21;71239.50;;;-148.52;61.29
3254;BME280;1639;42.804;23.342;2023-06-26T08:06:48;71249.84;;;-148.52;60.71
3254;BME280;1639;42.804;23.342;2023-06-26T08:09:14;71237.44;;;-148.52;61.17
3254;BME280;1639;42.804;23.342;2023-06-26T08:11:39;71204.38;;;-148.52;59.32
3254;BME280;1639;42.804;23.342;2023-06-26T08:14:04;71160.94;;;-148.52;60.41
3254;BME280;1639;42.804;23.342;2023-06-26T08:16:30;71189.88;;;-148.52;58.64
3254;BME280;1639;42.804;23.342;2023-06-26T08:18:55;71214.69;;;-148.52;59.42
3254;BME280;1639;42.804;23.342;2023-06-26T08:21:20;71247.78;;;-148.52;60.08
3254;BME280;1639;42.804;23.342;2023-06-26T08:23:46;71266.38;;;-148.52;60.11
3254;BME280;1639;42.804;23.342;2023-06-26T08:26:11;71284.97;;;-148.52;61.58
3254;BME280;1639;42.804;23.342;2023-06-26T08:28:37;71301.53;;;-148.52;62.21
3254;BME280;1639;42.804;23.342;2023-06-26T08:31:02;71305.66;;;-148.52;61.02
3254;BME280;1639;42.804;23.342;2023-06-26T08:33:27;71307.72;;;-148.52;63.32
3254;BME280;1639;42.804;23.342;2023-06-26T08:35:53;71293.25;;;-148.52;61.99
3254;BME280;1639;42.804;23.342;2023-06-26T08:38:18;71289.13;;;-148.52;60.91
3254;BME280;1639;42.804;23.342;2023-06-26T08:40:46;71239.50;;;-148.52;60.33
3254;BME280;1639;42.804;23.342;2023-06-26T08:43:12;71202.28;;;-148.52;59.55
3254;BME280;1639;42.804;23.342;2023-06-26T08:45:37;71220.91;;;-148.52;58.98
3254;BME280;1639;42.804;23.342;2023-06-26T08:48:03;71227.09;;;-148.52;58.72
3254;BME280;1639;42.804;23.342;2023-06-26T08:50:34;71266.38;;;-148.52;59.19
3254;BME280;1639;42.804;23.342;2023-06-26T08:55:35;71303.59;;;-148.52;60.60
3254;BME280;1639;42.804;23.342;2023-06-26T08:58:03;71330.47;;;-148.52;61.31
3254;BME280;1639;42.804;23.342;2023-06-26T09:00:29;71342.88;;;-148.52;60.39
3254;BME280;1639;42.804;23.342;2023-06-26T09:02:56;71320.13;;;-148.52;61.46
3254;BME280;1639;42.804;23.342;2023-06-26T09:05:21;71247.78;;;-148.52;59.92
3254;BME280;1639;42.804;23.342;2023-06-26T09:07:47;71165.09;;;-148.52;58.47
3254;BME280;1639;42.804;23.342;2023-06-26T09:10:12;71086.53;;;-148.52;55.04
3254;BME280;1639;42.804;23.342;2023-06-26T09:12:38;71070.00;;;-148.52;54.17
3254;BME280;1639;42.804;23.342;2023-06-26T09:15:05;71026.56;;;-148.52;53.07
3254;BME280;1639;42.804;23.342;2023-06-26T09:17:33;71001.78;;;-148.52;53.13
3254;BME280;1639;42.804;23.342;2023-06-26T09:20:04;71028.66;;;-148.52;52.74
3254;BME280;1639;42.804;23.342;2023-06-26T09:22:33;71041.03;;;-148.52;51.30
3254;BME280;1639;42.804;23.342;2023-06-26T09:24:58;71072.06;;;-148.52;52.15
3254;BME280;1639;42.804;23.342;2023-06-26T09:27:24;71115.47;;;-148.52;53.76
3254;BME280;1639;42.804;23.342;2023-06-26T09:29:50;71165.09;;;-148.52;55.87
3254;BME280;1639;42.804;23.342;2023-06-26T09:32:16;71202.28;;;-148.52;55.83
3254;BME280;1639;42.804;23.342;2023-06-26T09:34:43;71225.03;;;-148.52;57.09
3254;BME280;1639;42.804;23.342;2023-06-26T09:37:12;71237.44;;;-148.52;57.40
3254;BME280;1639;42.804;23.342;2023-06-26T09:39:37;71258.13;;;-148.52;56.32
3254;BME280;1639;42.804;23.342;2023-06-26T09:42:04;71268.44;;;-148.52;56.65
3254;BME280;1639;42.804;23.342;2023-06-26T09:44:30;71287.06;;;-148.52;58.00
3254;BME280;1639;42.804;23.342;2023-06-26T09:46:56;71326.34;;;-148.52;59.40
3254;BME280;1639;42.804;23.342;2023-06-26T09:49:23;71361.47;;;-148.52;60.12
3254;BME280;1639;42.804;23.342;2023-06-26T09:51:50;71380.09;;;-148.52;63.59
3254;BME280;1639;42.804;23.342;2023-06-26T09:54:16;71404.91;;;-148.52;65.01
3254;BME280;1639;42.804;23.342;2023-06-26T09:56:42;71400.75;;;-148.52;67.96
3254;BME280;1639;42.804;23.342;2023-06-26T09:59:08;71394.56;;;-148.52;68.08
3254;BME280;1639;42.804;23.342;2023-06-26T10:01:41;71404.91;;;-148.52;68.71
3254;BME280;1639;42.804;23.342;2023-06-26T10:04:06;71386.28;;;-148.52;67.51
3254;BME280;1639;42.804;23.342;2023-06-26T10:06:33;71369.75;;;-148.52;67.50
3254;BME280;1639;42.804;23.342;2023-06-26T10:09:01;71359.41;;;-148.52;65.78
3254;BME280;1639;42.804;23.342;2023-06-26T10:11:34;71347.00;;;-148.52;64.78
3254;BME280;1639;42.804;23.342;2023-06-26T10:14:03;71351.13;;;-148.52;64.57
3254;BME280;1639;42.804;23.342;2023-06-26T10:16:31;71361.47;;;-148.52;60.02
3254;BME280;1639;42.804;23.342;2023-06-26T10:19:03;71365.63;;;-148.52;58.83
3254;BME280;1639;42.804;23.342;2023-06-26T10:21:31;71384.22;;;-148.52;59.98
3254;BME280;1639;42.804;23.342;2023-06-26T10:23:57;71386.28;;;-148.52;61.05
3254;BME280;1639;42.804;23.342;2023-06-26T10:26:24;71406.97;;;-148.52;62.45
3254;BME280;1639;42.804;23.342;2023-06-26T10:28:52;71425.56;;;-148.52;64.96
3254;BME280;1639;42.804;23.342;2023-06-26T10:31:20;71442.09;;;-148.52;67.00
3254;BME280;1639;42.804;23.342;2023-06-26T10:33:48;71452.44;;;-148.52;68.05
3254;BME280;1639;42.804;23.342;2023-06-26T10:36:19;71456.56;;;-148.52;71.48
3254;BME280;1639;42.804;23.342;2023-06-26T10:38:51;71471.06;;;-148.52;72.08
3254;BME280;1639;42.804;23.342;2023-06-26T10:41:24;71479.31;;;-148.52;74.94
3254;BME280;1639;42.804;23.342;2023-06-26T10:46:23;71402.81;;;-148.52;68.98
3254;BME280;1639;42.804;23.342;2023-06-26T10:48:59;71390.41;;;-148.52;65.43
3254;BME280;1639;42.804;23.342;2023-06-26T10:51:28;71380.09;;;-148.52;63.80
3254;BME280;1639;42.804;23.342;2023-06-26T10:53:57;71384.22;;;-148.52;66.52
3254;BME280;1639;42.804;23.342;2023-06-26T10:56:43;71384.22;;;-148.52;66.81
3254;BME280;1639;42.804;23.342;2023-06-26T11:01:41;71396.63;;;-148.52;68.00
3254;BME280;1639;42.804;23.342;2023-06-26T11:04:10;71375.94;;;-148.52;65.74
3254;BME280;1639;42.804;23.342;2023-06-26T11:06:38;71355.28;;;-148.52;65.75
3254;BME280;1639;42.804;23.342;2023-06-26T11:09:10;71313.94;;;-148.52;65.08
3254;BME280;1639;42.804;23.342;2023-06-26T11:14:21;71272.59;;;-148.52;61.66
3254;BME280;1639;42.804;23.342;2023-06-26T11:16:47;71247.78;;;-148.52;59.09
3254;BME280;1639;42.804;23.342;2023-06-26T11:19:14;71235.38;;;-148.52;59.74
3254;BME280;1639;42.804;23.342;2023-06-26T11:21:40;71216.75;;;-148.52;58.96
3254;BME280;1639;42.804;23.342;2023-06-26T11:24:07;71194.03;;;-148.52;57.99
3254;BME280;1639;42.804;23.342;2023-06-26T11:26:39;71160.94;;;-148.52;55.64
3254;BME280;1639;42.804;23.342;2023-06-26T11:29:05;71150.63;;;-148.52;55.64
3254;BME280;1639;42.804;23.342;2023-06-26T11:31:33;71144.41;;;-148.52;54.56
3254;BME280;1639;42.804;23.342;2023-06-26T11:34:02;71125.81;;;-148.52;54.98
3254;BME280;1639;42.804;23.342;2023-06-26T11:36:29;71123.75;;;-148.52;55.30
3254;BME280;1639;42.804;23.342;2023-06-26T11:38:59;71055.53;;;-148.52;53.33
3254;BME280;1639;42.804;23.342;2023-06-26T11:41:27;71014.19;;;-148.52;51.58
3254;BME280;1639;42.804;23.342;2023-06-26T11:43:53;71007.97;;;-148.52;50.82
3254;BME280;1639;42.804;23.342;2023-06-26T11:46:20;71036.91;;;-148.52;49.84
3254;BME280;1639;42.804;23.342;2023-06-26T11:48:46;71072.06;;;-148.52;50.63
3254;BME280;1639;42.804;23.342;2023-06-26T11:51:15;71098.94;;;-148.52;52.23
3254;BME280;1639;42.804;23.342;2023-06-26T11:53:42;71098.94;;;-148.52;52.87
3254;BME280;1639;42.804;23.342;2023-06-26T11:56:11;71119.59;;;-148.52;52.85
3254;BME280;1639;42.804;23.342;2023-06-26T11:58:56;71061.72;;;-148.52;54.62
3254;BME280;1639;42.804;23.342;2023-06-26T12:01:22;71014.19;;;-148.52;52.94
3254;BME280;1639;42.804;23.342;2023-06-26T12:03:49;71032.78;;;-148.52;53.74
3254;BME280;1639;42.804;23.342;2023-06-26T12:06:15;71057.59;;;-148.52;51.43
3254;BME280;1639;42.804;23.342;2023-06-26T12:08:41;71072.06;;;-148.52;51.26
3254;BME280;1639;42.804;23.342;2023-06-26T12:11:07;71084.47;;;-148.52;50.58
3254;BME280;1639;42.804;23.342;2023-06-26T12:13:33;71094.78;;;-148.52;51.15
3254;BME280;1639;42.804;23.342;2023-06-26T12:15:59;71074.13;;;-148.52;51.96
3254;BME280;1639;42.804;23.342;2023-06-26T12:18:24;71049.31;;;-148.52;52.03
3254;BME280;1639;42.804;23.342;2023-06-26T12:20:52;71020.38;;;-148.52;51.45
3254;BME280;1639;42.804;23.342;2023-06-26T12:23:17;71003.84;;;-148.52;52.47
3254;BME280;1639;42.804;23.342;2023-06-26T12:25:43;70995.56;;;-148.52;51.11
3254;BME280;1639;42.804;23.342;2023-06-26T12:28:16;71022.44;;;-148.52;52.30
3254;BME280;1639;42.804;23.342;2023-06-26T12:30:46;71012.09;;;-148.52;51.41
3254;BME280;1639;42.804;23.342;2023-06-26T12:33:15;71016.25;;;-148.52;52.84
3254;BME280;1639;42.804;23.342;2023-06-26T12:35:41;71007.97;;;-148.52;53.59
3254;BME280;1639;42.804;23.342;2023-06-26T12:38:08;70995.56;;;-148.52;51.63
3254;BME280;1639;42.804;23.342;2023-06-26T12:40:44;71005.91;;;-148.52;52.13
3254;BME280;1639;42.804;23.342;2023-06-26T12:43:23;70960.44;;;-148.52;54.41
3254;BME280;1639;42.804;23.342;2023-06-26T12:45:53;70933.56;;;-148.52;49.92
3254;BME280;1639;42.804;23.342;2023-06-26T12:48:18;70914.94;;;-148.52;51.11
3254;BME280;1639;42.804;23.342;2023-06-26T12:50:45;70945.97;;;-148.52;50.43
3254;BME280;1639;42.804;23.342;2023-06-26T12:53:11;70908.75;;;-148.52;51.68
3254;BME280;1639;42.804;23.342;2023-06-26T12:55:36;70888.06;;;-148.52;50.01
3254;BME280;1639;42.804;23.342;2023-06-26T12:58:02;70888.06;;;-148.52;49.05
3254;BME280;1639;42.804;23.342;2023-06-26T13:00:27;70863.28;;;-148.52;51.20
3254;BME280;1639;42.804;23.342;2023-06-26T13:02:52;70850.88;;;-148.52;47.57